sensor_id;sensor_type;location;lat;lon;timestamp;temperature;humidity
64817;DHT22;69411;45.656;11.740;2023-04-25T00:01:47;13.60;70.40
64817;DHT22;69411;45.656;11.740;2023-04-25T00:04:13;13.60;70.40
64817;DHT22;69411;45.656;11.740;2023-04-25T00:06:39;13.60;70.60
64817;DHT22;69411;45.656;11.740;2023-04-25T00:09:05;13.50;70.60
64817;DHT22;69411;45.656;11.740;2023-04-25T00:11:35;13.50;71.00
64817;DHT22;69411;45.656;11.740;2023-04-25T00:14:03;13.40;71.70
64817;DHT22;69411;45.656;11.740;2023-04-25T00:16:30;13.40;71.80
64817;DHT22;69411;45.656;11.740;2023-04-25T00:18:59;13.30;71.60
64817;DHT22;69411;45.656;11.740;2023-04-25T00:21:27;13.30;71.60
64817;DHT22;69411;45.656;11.740;2023-04-25T00:23:54;13.20;71.50
64817;DHT22;69411;45.656;11.740;2023-04-25T00:26:20;13.20;71.50
64817;DHT22;69411;45.656;11.740;2023-04-25T00:28:47;13.20;71.50
64817;DHT22;69411;45.656;11.740;2023-04-25T00:31:13;13.20;71.50
64817;DHT22;69411;45.656;11.740;2023-04-25T00:33:39;13.20;71.50
64817;DHT22;69411;45.656;11.740;2023-04-25T00:36:05;13.10;71.60
64817;DHT22;69411;45.656;11.740;2023-04-25T00:38:32;13.10;71.60
64817;DHT22;69411;45.656;11.740;2023-04-25T00:40:58;13.10;71.60
64817;DHT22;69411;45.656;11.740;2023-04-25T00:43:27;13.10;71.80
64817;DHT22;69411;45.656;11.740;2023-04-25T00:45:53;13.10;72.30
64817;DHT22;69411;45.656;11.740;2023-04-25T00:48:22;13.00;72.60
64817;DHT22;69411;45.656;11.740;2023-04-25T00:50:54;13.00;73.10
64817;DHT22;69411;45.656;11.740;2023-04-25T00:53:21;12.90;73.10
64817;DHT22;69411;45.656;11.740;2023-04-25T00:55:47;12.90;72.80
64817;DHT22;69411;45.656;11.740;2023-04-25T00:58:20;12.90;73.30
64817;DHT22;69411;45.656;11.740;2023-04-25T01:00:47;12.90;73.20
64817;DHT22;69411;45.656;11.740;2023-04-25T01:03:14;12.90;72.70
64817;DHT22;69411;45.656;11.740;2023-04-25T01:05:43;12.90;73.10
64817;DHT22;69411;45.656;11.740;2023-04-25T01:08:09;12.90;73.30
64817;DHT22;69411;45.656;11.740;2023-04-25T01:10:36;12.80;73.60
64817;DHT22;69411;45.656;11.740;2023-04-25T01:13:03;12.80;73.60
64817;DHT22;69411;45.656;11.740;2023-04-25T01:15:29;12.70;73.80
64817;DHT22;69411;45.656;11.740;2023-04-25T01:17:55;12.70;73.80
64817;DHT22;69411;45.656;11.740;2023-04-25T01:20:22;12.60;73.80
64817;DHT22;69411;45.656;11.740;2023-04-25T01:22:50;12.60;73.90
64817;DHT22;69411;45.656;11.740;2023-04-25T01:25:16;12.60;74.20
64817;DHT22;69411;45.656;11.740;2023-04-25T01:27:42;12.50;74.20
64817;DHT22;69411;45.656;11.740;2023-04-25T01:30:09;12.50;73.80
64817;DHT22;69411;45.656;11.740;2023-04-25T01:32:35;12.60;74.30
64817;DHT22;69411;45.656;11.740;2023-04-25T01:35:09;12.50;74.10
64817;DHT22;69411;45.656;11.740;2023-04-25T01:37:40;12.50;73.60
64817;DHT22;69411;45.656;11.740;2023-04-25T01:40:07;12.50;73.50
64817;DHT22;69411;45.656;11.740;2023-04-25T01:42:35;12.50;73.80
64817;DHT22;69411;45.656;11.740;2023-04-25T01:45:02;12.40;73.60
64817;DHT22;69411;45.656;11.740;2023-04-25T01:47:28;12.50;73.80
64817;DHT22;69411;45.656;11.740;2023-04-25T01:49:54;12.40;74.00
64817;DHT22;69411;45.656;11.740;2023-04-25T01:52:20;12.40;74.10
64817;DHT22;69411;45.656;11.740;2023-04-25T01:54:47;12.40;74.10
64817;DHT22;69411;45.656;11.740;2023-04-25T01:57:13;12.40;73.80
64817;DHT22;69411;45.656;11.740;2023-04-25T01:59:39;12.40;73.60
64817;DHT22;69411;45.656;11.740;2023-04-25T02:02:06;12.40;73.50
64817;DHT22;69411;45.656;11.740;2023-04-25T02:04:32;12.40;73.70
64817;DHT22;69411;45.656;11.740;2023-04-25T02:06:58;12.40;73.60
64817;DHT22;69411;45.656;11.740;2023-04-25T02:09:24;12.40;73.70
64817;DHT22;69411;45.656;11.740;2023-04-25T02:11:50;12.40;73.40
64817;DHT22;69411;45.656;11.740;2023-04-25T02:14:16;12.40;73.30
64817;DHT22;69411;45.656;11.740;2023-04-25T02:16:42;12.40;73.30
64817;DHT22;69411;45.656;11.740;2023-04-25T02:19:10;12.40;73.30
64817;DHT22;69411;45.656;11.740;2023-04-25T02:21:36;12.50;73.20
64817;DHT22;69411;45.656;11.740;2023-04-25T02:24:03;12.50;73.10
64817;DHT22;69411;45.656;11.740;2023-04-25T02:26:29;12.50;72.90
64817;DHT22;69411;45.656;11.740;2023-04-25T02:28:58;12.50;73.30
64817;DHT22;69411;45.656;11.740;2023-04-25T02:31:24;12.50;73.00
64817;DHT22;69411;45.656;11.740;2023-04-25T02:33:50;12.40;73.10
64817;DHT22;69411;45.656;11.740;2023-04-25T02:36:16;12.40;73.10
64817;DHT22;69411;45.656;11.740;2023-04-25T02:38:42;12.40;73.20
64817;DHT22;69411;45.656;11.740;2023-04-25T02:41:07;12.40;73.30
64817;DHT22;69411;45.656;11.740;2023-04-25T02:43:33;12.30;73.40
64817;DHT22;69411;45.656;11.740;2023-04-25T02:45:59;12.30;73.60
64817;DHT22;69411;45.656;11.740;2023-04-25T02:48:25;12.30;73.40
64817;DHT22;69411;45.656;11.740;2023-04-25T02:50:51;12.20;73.40
64817;DHT22;69411;45.656;11.740;2023-04-25T02:53:17;12.20;73.30
64817;DHT22;69411;45.656;11.740;2023-04-25T02:55:43;12.20;73.30
64817;DHT22;69411;45.656;11.740;2023-04-25T02:58:09;12.20;73.10
64817;DHT22;69411;45.656;11.740;2023-04-25T03:00:35;12.30;73.10
64817;DHT22;69411;45.656;11.740;2023-04-25T03:03:01;12.30;73.10
64817;DHT22;69411;45.656;11.740;2023-04-25T03:05:27;12.30;73.00
64817;DHT22;69411;45.656;11.740;2023-04-25T03:07:53;12.30;72.90
64817;DHT22;69411;45.656;11.740;2023-04-25T03:10:19;12.30;72.80
64817;DHT22;69411;45.656;11.740;2023-04-25T03:12:45;12.40;72.80
64817;DHT22;69411;45.656;11.740;2023-04-25T03:15:11;12.40;72.70
64817;DHT22;69411;45.656;11.740;2023-04-25T03:17:37;12.40;72.70
64817;DHT22;69411;45.656;11.740;2023-04-25T03:20:03;12.40;72.60
64817;DHT22;69411;45.656;11.740;2023-04-25T03:22:29;12.40;72.60
64817;DHT22;69411;45.656;11.740;2023-04-25T03:24:55;12.40;72.50
64817;DHT22;69411;45.656;11.740;2023-04-25T03:27:21;12.40;72.50
64817;DHT22;69411;45.656;11.740;2023-04-25T03:29:47;12.50;72.60
64817;DHT22;69411;45.656;11.740;2023-04-25T03:32:13;12.50;72.60
64817;DHT22;69411;45.656;11.740;2023-04-25T03:34:39;12.50;72.70
64817;DHT22;69411;45.656;11.740;2023-04-25T03:37:05;12.50;72.60
64817;DHT22;69411;45.656;11.740;2023-04-25T03:39:31;12.50;72.70
64817;DHT22;69411;45.656;11.740;2023-04-25T03:41:57;12.50;72.90
64817;DHT22;69411;45.656;11.740;2023-04-25T03:44:23;12.50;72.80
64817;DHT22;69411;45.656;11.740;2023-04-25T03:46:50;12.40;73.30
64817;DHT22;69411;45.656;11.740;2023-04-25T03:49:16;12.40;73.80
64817;DHT22;69411;45.656;11.740;2023-04-25T03:51:42;12.30;73.60
64817;DHT22;69411;45.656;11.740;2023-04-25T03:54:08;12.30;73.70
64817;DHT22;69411;45.656;11.740;2023-04-25T03:56:34;12.30;74.10
64817;DHT22;69411;45.656;11.740;2023-04-25T03:59:00;12.20;74.10
64817;DHT22;69411;45.656;11.740;2023-04-25T04:01:26;12.10;74.40
64817;DHT22;69411;45.656;11.740;2023-04-25T04:03:51;12.10;74.50
64817;DHT22;69411;45.656;11.740;2023-04-25T04:06:17;12.10;74.60
64817;DHT22;69411;45.656;11.740;2023-04-25T04:08:44;12.00;74.80
64817;DHT22;69411;45.656;11.740;2023-04-25T04:11:09;12.00;74.60
64817;DHT22;69411;45.656;11.740;2023-04-25T04:13:36;12.00;74.80
64817;DHT22;69411;45.656;11.740;2023-04-25T04:16:02;12.00;74.70
64817;DHT22;69411;45.656;11.740;2023-04-25T04:18:29;12.00;74.60
64817;DHT22;69411;45.656;11.740;2023-04-25T04:20:55;12.10;74.30
64817;DHT22;69411;45.656;11.740;2023-04-25T04:23:23;12.10;74.20
64817;DHT22;69411;45.656;11.740;2023-04-25T04:25:49;12.20;74.10
64817;DHT22;69411;45.656;11.740;2023-04-25T04:28:15;12.30;73.90
64817;DHT22;69411;45.656;11.740;2023-04-25T04:30:42;12.40;73.80
64817;DHT22;69411;45.656;11.740;2023-04-25T04:33:08;12.40;74.10
64817;DHT22;69411;45.656;11.740;2023-04-25T04:35:35;12.40;74.20
64817;DHT22;69411;45.656;11.740;2023-04-25T04:38:00;12.40;74.20
64817;DHT22;69411;45.656;11.740;2023-04-25T04:40:26;12.50;74.30
64817;DHT22;69411;45.656;11.740;2023-04-25T04:42:53;12.50;74.10
64817;DHT22;69411;45.656;11.740;2023-04-25T04:45:18;12.50;74.10
64817;DHT22;69411;45.656;11.740;2023-04-25T04:47:44;12.50;74.00
64817;DHT22;69411;45.656;11.740;2023-04-25T04:50:11;12.60;74.00
64817;DHT22;69411;45.656;11.740;2023-04-25T04:52:37;12.60;73.90
64817;DHT22;69411;45.656;11.740;2023-04-25T04:55:05;12.60;73.90
64817;DHT22;69411;45.656;11.740;2023-04-25T04:57:31;12.60;74.10
64817;DHT22;69411;45.656;11.740;2023-04-25T04:59:59;12.70;74.00
64817;DHT22;69411;45.656;11.740;2023-04-25T05:02:25;12.70;74.00
64817;DHT22;69411;45.656;11.740;2023-04-25T05:04:51;12.70;74.70
64817;DHT22;69411;45.656;11.740;2023-04-25T05:07:18;12.70;74.70
64817;DHT22;69411;45.656;11.740;2023-04-25T05:09:44;12.70;74.60
64817;DHT22;69411;45.656;11.740;2023-04-25T05:12:10;12.70;74.40
64817;DHT22;69411;45.656;11.740;2023-04-25T05:14:36;12.70;74.30
64817;DHT22;69411;45.656;11.740;2023-04-25T05:17:02;12.70;74.20
64817;DHT22;69411;45.656;11.740;2023-04-25T05:19:30;12.80;74.20
64817;DHT22;69411;45.656;11.740;2023-04-25T05:21:56;12.80;74.30
64817;DHT22;69411;45.656;11.740;2023-04-25T05:24:22;12.80;74.20
64817;DHT22;69411;45.656;11.740;2023-04-25T05:26:48;12.80;74.80
64817;DHT22;69411;45.656;11.740;2023-04-25T05:29:14;12.80;75.00
64817;DHT22;69411;45.656;11.740;2023-04-25T05:31:39;12.80;74.80
64817;DHT22;69411;45.656;11.740;2023-04-25T05:34:05;12.80;75.30
64817;DHT22;69411;45.656;11.740;2023-04-25T05:36:32;12.80;75.30
64817;DHT22;69411;45.656;11.740;2023-04-25T05:38:58;12.70;75.70
64817;DHT22;69411;45.656;11.740;2023-04-25T05:41:24;12.70;75.30
64817;DHT22;69411;45.656;11.740;2023-04-25T05:43:50;12.70;75.20
64817;DHT22;69411;45.656;11.740;2023-04-25T05:46:16;12.70;74.90
64817;DHT22;69411;45.656;11.740;2023-04-25T05:48:45;12.70;74.90
64817;DHT22;69411;45.656;11.740;2023-04-25T05:51:11;12.80;75.10
64817;DHT22;69411;45.656;11.740;2023-04-25T05:53:37;12.70;75.20
64817;DHT22;69411;45.656;11.740;2023-04-25T05:56:03;12.80;75.10
64817;DHT22;69411;45.656;11.740;2023-04-25T05:58:29;12.80;75.10
64817;DHT22;69411;45.656;11.740;2023-04-25T06:00:55;12.80;75.00
64817;DHT22;69411;45.656;11.740;2023-04-25T06:03:21;12.90;74.90
64817;DHT22;69411;45.656;11.740;2023-04-25T06:05:47;12.90;75.00
64817;DHT22;69411;45.656;11.740;2023-04-25T06:08:13;12.90;75.10
64817;DHT22;69411;45.656;11.740;2023-04-25T06:10:38;12.90;75.40
64817;DHT22;69411;45.656;11.740;2023-04-25T06:13:04;12.90;75.20
64817;DHT22;69411;45.656;11.740;2023-04-25T06:15:30;12.90;75.60
64817;DHT22;69411;45.656;11.740;2023-04-25T06:17:58;12.80;75.30
64817;DHT22;69411;45.656;11.740;2023-04-25T06:20:24;12.80;75.20
64817;DHT22;69411;45.656;11.740;2023-04-25T06:22:51;12.90;75.20
64817;DHT22;69411;45.656;11.740;2023-04-25T06:25:17;12.90;75.20
64817;DHT22;69411;45.656;11.740;2023-04-25T06:27:43;12.90;75.20
64817;DHT22;69411;45.656;11.740;2023-04-25T06:30:09;12.90;75.20
64817;DHT22;69411;45.656;11.740;2023-04-25T06:32:38;12.90;75.20
64817;DHT22;69411;45.656;11.740;2023-04-25T06:35:04;12.90;75.20
64817;DHT22;69411;45.656;11.740;2023-04-25T06:37:30;12.90;75.20
64817;DHT22;69411;45.656;11.740;2023-04-25T06:39:56;12.90;75.20
64817;DHT22;69411;45.656;11.740;2023-04-25T06:42:22;12.90;75.30
64817;DHT22;69411;45.656;11.740;2023-04-25T06:44:48;12.90;75.10
64817;DHT22;69411;45.656;11.740;2023-04-25T06:47:15;12.90;75.00
64817;DHT22;69411;45.656;11.740;2023-04-25T06:49:40;12.90;75.10
64817;DHT22;69411;45.656;11.740;2023-04-25T06:52:07;12.90;75.20
64817;DHT22;69411;45.656;11.740;2023-04-25T06:54:33;12.90;75.20
64817;DHT22;69411;45.656;11.740;2023-04-25T06:56:59;12.90;75.30
64817;DHT22;69411;45.656;11.740;2023-04-25T06:59:26;12.90;75.20
64817;DHT22;69411;45.656;11.740;2023-04-25T07:01:52;12.90;75.20
64817;DHT22;69411;45.656;11.740;2023-04-25T07:04:18;12.90;75.00
64817;DHT22;69411;45.656;11.740;2023-04-25T07:06:44;12.90;75.00
64817;DHT22;69411;45.656;11.740;2023-04-25T07:09:11;12.90;75.00
64817;DHT22;69411;45.656;11.740;2023-04-25T07:11:37;12.90;75.10
64817;DHT22;69411;45.656;11.740;2023-04-25T07:14:03;12.90;75.00
64817;DHT22;69411;45.656;11.740;2023-04-25T07:16:29;12.90;75.10
64817;DHT22;69411;45.656;11.740;2023-04-25T07:18:55;12.90;75.10
64817;DHT22;69411;45.656;11.740;2023-04-25T07:21:21;12.90;75.00
64817;DHT22;69411;45.656;11.740;2023-04-25T07:23:47;12.90;75.00
64817;DHT22;69411;45.656;11.740;2023-04-25T07:26:13;12.90;75.00
64817;DHT22;69411;45.656;11.740;2023-04-25T07:28:39;12.90;75.20
64817;DHT22;69411;45.656;11.740;2023-04-25T07:31:05;12.90;75.10
64817;DHT22;69411;45.656;11.740;2023-04-25T07:33:31;12.80;75.10
64817;DHT22;69411;45.656;11.740;2023-04-25T07:35:57;12.80;75.10
64817;DHT22;69411;45.656;11.740;2023-04-25T07:38:23;12.70;75.10
64817;DHT22;69411;45.656;11.740;2023-04-25T07:40:49;12.70;75.10
64817;DHT22;69411;45.656;11.740;2023-04-25T07:43:15;12.60;75.40
64817;DHT22;69411;45.656;11.740;2023-04-25T07:45:45;12.70;75.40
64817;DHT22;69411;45.656;11.740;2023-04-25T07:48:13;12.70;75.50
64817;DHT22;69411;45.656;11.740;2023-04-25T07:50:41;12.60;75.50
64817;DHT22;69411;45.656;11.740;2023-04-25T07:53:07;12.60;75.80
64817;DHT22;69411;45.656;11.740;2023-04-25T07:55:36;12.60;75.90
64817;DHT22;69411;45.656;11.740;2023-04-25T07:58:08;12.60;75.60
64817;DHT22;69411;45.656;11.740;2023-04-25T08:00:35;12.60;75.70
64817;DHT22;69411;45.656;11.740;2023-04-25T08:03:00;12.60;75.80
64817;DHT22;69411;45.656;11.740;2023-04-25T08:05:26;12.70;76.10
64817;DHT22;69411;45.656;11.740;2023-04-25T08:07:52;12.70;76.30
64817;DHT22;69411;45.656;11.740;2023-04-25T08:10:18;12.70;76.20
64817;DHT22;69411;45.656;11.740;2023-04-25T08:12:44;12.70;76.60
64817;DHT22;69411;45.656;11.740;2023-04-25T08:15:10;12.70;77.30
64817;DHT22;69411;45.656;11.740;2023-04-25T08:17:36;12.70;77.20
64817;DHT22;69411;45.656;11.740;2023-04-25T08:20:02;12.70;77.80
64817;DHT22;69411;45.656;11.740;2023-04-25T08:22:31;12.60;77.90
64817;DHT22;69411;45.656;11.740;2023-04-25T08:24:57;12.60;77.40
64817;DHT22;69411;45.656;11.740;2023-04-25T08:27:23;12.60;77.20
64817;DHT22;69411;45.656;11.740;2023-04-25T08:29:49;12.60;76.90
64817;DHT22;69411;45.656;11.740;2023-04-25T08:32:16;12.70;77.00
64817;DHT22;69411;45.656;11.740;2023-04-25T08:34:42;12.70;76.90
64817;DHT22;69411;45.656;11.740;2023-04-25T08:37:10;12.80;76.70
64817;DHT22;69411;45.656;11.740;2023-04-25T08:39:36;12.80;78.00
64817;DHT22;69411;45.656;11.740;2023-04-25T08:42:06;12.70;77.90
64817;DHT22;69411;45.656;11.740;2023-04-25T08:44:36;12.60;78.90
64817;DHT22;69411;45.656;11.740;2023-04-25T08:47:03;12.50;79.40
64817;DHT22;69411;45.656;11.740;2023-04-25T08:49:33;12.50;79.20
64817;DHT22;69411;45.656;11.740;2023-04-25T08:52:01;12.50;78.80
64817;DHT22;69411;45.656;11.740;2023-04-25T08:54:31;12.50;79.50
64817;DHT22;69411;45.656;11.740;2023-04-25T08:57:01;12.60;80.10
64817;DHT22;69411;45.656;11.740;2023-04-25T08:59:30;12.60;79.70
64817;DHT22;69411;45.656;11.740;2023-04-25T09:01:57;12.70;78.90
64817;DHT22;69411;45.656;11.740;2023-04-25T09:04:23;12.70;79.00
64817;DHT22;69411;45.656;11.740;2023-04-25T09:06:49;12.70;78.50
64817;DHT22;69411;45.656;11.740;2023-04-25T09:09:16;12.70;78.20
64817;DHT22;69411;45.656;11.740;2023-04-25T09:11:42;12.80;77.40
64817;DHT22;69411;45.656;11.740;2023-04-25T09:14:21;12.90;76.40
64817;DHT22;69411;45.656;11.740;2023-04-25T09:19:30;13.20;76.40
64817;DHT22;69411;45.656;11.740;2023-04-25T09:22:00;13.30;76.20
64817;DHT22;69411;45.656;11.740;2023-04-25T09:24:45;13.40;76.00
64817;DHT22;69411;45.656;11.740;2023-04-25T09:27:20;13.50;76.50
64817;DHT22;69411;45.656;11.740;2023-04-25T09:29:48;13.70;76.80
64817;DHT22;69411;45.656;11.740;2023-04-25T09:32:24;13.80;73.70
64817;DHT22;69411;45.656;11.740;2023-04-25T09:34:53;13.80;72.60
64817;DHT22;69411;45.656;11.740;2023-04-25T09:37:20;13.90;72.40
64817;DHT22;69411;45.656;11.740;2023-04-25T09:39:53;13.90;72.30
64817;DHT22;69411;45.656;11.740;2023-04-25T09:42:23;14.00;72.30
64817;DHT22;69411;45.656;11.740;2023-04-25T09:44:52;14.10;70.60
64817;DHT22;69411;45.656;11.740;2023-04-25T09:47:18;14.10;71.20
64817;DHT22;69411;45.656;11.740;2023-04-25T09:49:47;14.10;69.60
64817;DHT22;69411;45.656;11.740;2023-04-25T09:52:15;14.20;72.00
64817;DHT22;69411;45.656;11.740;2023-04-25T09:54:42;14.40;70.90
64817;DHT22;69411;45.656;11.740;2023-04-25T09:59:51;14.40;71.60
64817;DHT22;69411;45.656;11.740;2023-04-25T10:02:23;14.40;69.80
64817;DHT22;69411;45.656;11.740;2023-04-25T10:04:50;14.40;68.10
64817;DHT22;69411;45.656;11.740;2023-04-25T10:07:19;14.50;68.50
64817;DHT22;69411;45.656;11.740;2023-04-25T10:09:48;14.50;68.90
64817;DHT22;69411;45.656;11.740;2023-04-25T10:12:16;14.60;67.30
64817;DHT22;69411;45.656;11.740;2023-04-25T10:14:42;14.70;68.50
64817;DHT22;69411;45.656;11.740;2023-04-25T10:17:10;14.90;68.80
64817;DHT22;69411;45.656;11.740;2023-04-25T10:19:37;14.90;66.90
64817;DHT22;69411;45.656;11.740;2023-04-25T10:24:35;15.10;67.20
64817;DHT22;69411;45.656;11.740;2023-04-25T10:27:02;15.10;66.40
64817;DHT22;69411;45.656;11.740;2023-04-25T10:29:28;15.10;64.60
64817;DHT22;69411;45.656;11.740;2023-04-25T10:31:54;15.10;66.50
64817;DHT22;69411;45.656;11.740;2023-04-25T10:34:42;15.20;68.20
64817;DHT22;69411;45.656;11.740;2023-04-25T10:37:09;15.30;65.20
64817;DHT22;69411;45.656;11.740;2023-04-25T10:39:35;15.30;66.30
64817;DHT22;69411;45.656;11.740;2023-04-25T10:42:03;15.30;67.60
64817;DHT22;69411;45.656;11.740;2023-04-25T10:44:30;15.30;68.10
64817;DHT22;69411;45.656;11.740;2023-04-25T10:46:57;15.40;67.20
64817;DHT22;69411;45.656;11.740;2023-04-25T10:49:42;15.60;66.60
64817;DHT22;69411;45.656;11.740;2023-04-25T10:52:18;15.70;66.60
64817;DHT22;69411;45.656;11.740;2023-04-25T10:54:52;15.70;64.90
64817;DHT22;69411;45.656;11.740;2023-04-25T11:00:06;15.70;64.50
64817;DHT22;69411;45.656;11.740;2023-04-25T11:02:41;15.70;64.00
64817;DHT22;69411;45.656;11.740;2023-04-25T11:05:09;15.60;64.20
64817;DHT22;69411;45.656;11.740;2023-04-25T11:07:45;15.70;65.40
64817;DHT22;69411;45.656;11.740;2023-04-25T11:10:14;15.50;65.90
64817;DHT22;69411;45.656;11.740;2023-04-25T11:12:40;15.60;66.40
64817;DHT22;69411;45.656;11.740;2023-04-25T11:15:07;15.70;65.80
64817;DHT22;69411;45.656;11.740;2023-04-25T11:17:33;15.70;66.00
64817;DHT22;69411;45.656;11.740;2023-04-25T11:19:59;15.80;65.60
64817;DHT22;69411;45.656;11.740;2023-04-25T11:22:27;15.90;66.50
64817;DHT22;69411;45.656;11.740;2023-04-25T11:24:53;15.90;62.40
64817;DHT22;69411;45.656;11.740;2023-04-25T11:27:19;15.90;64.60
64817;DHT22;69411;45.656;11.740;2023-04-25T11:29:46;16.00;65.10
64817;DHT22;69411;45.656;11.740;2023-04-25T11:32:15;16.10;64.10
64817;DHT22;69411;45.656;11.740;2023-04-25T11:34:43;16.10;63.80
64817;DHT22;69411;45.656;11.740;2023-04-25T11:37:11;16.00;62.00
64817;DHT22;69411;45.656;11.740;2023-04-25T11:39:43;15.90;65.40
64817;DHT22;69411;45.656;11.740;2023-04-25T11:42:10;15.70;66.80
64817;DHT22;69411;45.656;11.740;2023-04-25T11:44:38;15.70;66.80
64817;DHT22;69411;45.656;11.740;2023-04-25T11:47:05;15.90;66.50
64817;DHT22;69411;45.656;11.740;2023-04-25T11:49:31;15.90;65.20
64817;DHT22;69411;45.656;11.740;2023-04-25T11:51:57;16.00;65.20
64817;DHT22;69411;45.656;11.740;2023-04-25T11:54:23;16.00;64.90
64817;DHT22;69411;45.656;11.740;2023-04-25T11:56:49;16.10;64.50
64817;DHT22;69411;45.656;11.740;2023-04-25T11:59:15;16.10;63.40
64817;DHT22;69411;45.656;11.740;2023-04-25T12:01:48;16.00;63.60
64817;DHT22;69411;45.656;11.740;2023-04-25T12:04:17;15.90;63.10
64817;DHT22;69411;45.656;11.740;2023-04-25T12:06:44;15.90;64.20
64817;DHT22;69411;45.656;11.740;2023-04-25T12:09:15;15.90;63.90
64817;DHT22;69411;45.656;11.740;2023-04-25T12:11:43;15.90;64.40
64817;DHT22;69411;45.656;11.740;2023-04-25T12:14:10;15.90;64.90
64817;DHT22;69411;45.656;11.740;2023-04-25T12:16:45;15.90;63.30
64817;DHT22;69411;45.656;11.740;2023-04-25T12:19:16;15.90;63.40
64817;DHT22;69411;45.656;11.740;2023-04-25T12:21:43;15.90;63.00
64817;DHT22;69411;45.656;11.740;2023-04-25T12:24:24;15.80;61.70
64817;DHT22;69411;45.656;11.740;2023-04-25T12:27:00;15.70;61.50
64817;DHT22;69411;45.656;11.740;2023-04-25T12:29:27;15.70;61.00
64817;DHT22;69411;45.656;11.740;2023-04-25T12:31:56;15.60;61.60
64817;DHT22;69411;45.656;11.740;2023-04-25T12:34:23;15.50;61.60
64817;DHT22;69411;45.656;11.740;2023-04-25T12:36:59;15.50;62.00
64817;DHT22;69411;45.656;11.740;2023-04-25T12:39:41;15.30;63.30
64817;DHT22;69411;45.656;11.740;2023-04-25T12:42:07;15.20;63.60
64817;DHT22;69411;45.656;11.740;2023-04-25T12:44:38;15.10;63.90
64817;DHT22;69411;45.656;11.740;2023-04-25T12:47:04;15.00;64.80
64817;DHT22;69411;45.656;11.740;2023-04-25T12:49:31;14.90;65.30
64817;DHT22;69411;45.656;11.740;2023-04-25T12:51:57;14.80;66.30
64817;DHT22;69411;45.656;11.740;2023-04-25T12:54:23;14.70;66.70
64817;DHT22;69411;45.656;11.740;2023-04-25T12:56:50;14.60;67.20
64817;DHT22;69411;45.656;11.740;2023-04-25T12:59:19;14.60;67.30
64817;DHT22;69411;45.656;11.740;2023-04-25T13:01:47;14.60;68.60
64817;DHT22;69411;45.656;11.740;2023-04-25T13:04:13;14.60;69.10
64817;DHT22;69411;45.656;11.740;2023-04-25T13:06:40;14.60;68.70
64817;DHT22;69411;45.656;11.740;2023-04-25T13:09:08;14.60;68.80
64817;DHT22;69411;45.656;11.740;2023-04-25T13:11:34;14.50;68.80
64817;DHT22;69411;45.656;11.740;2023-04-25T13:14:00;14.60;69.50
64817;DHT22;69411;45.656;11.740;2023-04-25T13:16:27;14.50;70.40
64817;DHT22;69411;45.656;11.740;2023-04-25T13:18:53;14.50;70.10
64817;DHT22;69411;45.656;11.740;2023-04-25T13:21:19;14.50;70.20
64817;DHT22;69411;45.656;11.740;2023-04-25T13:23:45;14.40;70.20
64817;DHT22;69411;45.656;11.740;2023-04-25T13:26:12;14.40;69.40
64817;DHT22;69411;45.656;11.740;2023-04-25T13:28:38;14.40;69.40
64817;DHT22;69411;45.656;11.740;2023-04-25T13:31:05;14.40;69.70
64817;DHT22;69411;45.656;11.740;2023-04-25T13:33:31;14.40;69.60
64817;DHT22;69411;45.656;11.740;2023-04-25T13:35:57;14.40;68.90
64817;DHT22;69411;45.656;11.740;2023-04-25T13:38:24;14.40;69.30
64817;DHT22;69411;45.656;11.740;2023-04-25T13:40:51;14.40;68.90
64817;DHT22;69411;45.656;11.740;2023-04-25T13:43:20;14.40;68.50
64817;DHT22;69411;45.656;11.740;2023-04-25T13:45:50;14.40;69.00
64817;DHT22;69411;45.656;11.740;2023-04-25T13:48:17;14.40;69.10
64817;DHT22;69411;45.656;11.740;2023-04-25T13:50:43;14.50;69.40
64817;DHT22;69411;45.656;11.740;2023-04-25T13:53:09;14.50;69.10
64817;DHT22;69411;45.656;11.740;2023-04-25T13:55:35;14.60;69.20
64817;DHT22;69411;45.656;11.740;2023-04-25T13:58:02;14.70;69.30
64817;DHT22;69411;45.656;11.740;2023-04-25T14:00:34;14.70;69.30
64817;DHT22;69411;45.656;11.740;2023-04-25T14:03:00;14.80;69.30
64817;DHT22;69411;45.656;11.740;2023-04-25T14:05:30;14.80;68.70
64817;DHT22;69411;45.656;11.740;2023-04-25T14:07:56;14.90;68.30
64817;DHT22;69411;45.656;11.740;2023-04-25T14:10:22;14.90;68.50
64817;DHT22;69411;45.656;11.740;2023-04-25T14:12:48;14.90;68.70
64817;DHT22;69411;45.656;11.740;2023-04-25T14:15:14;14.90;68.30
64817;DHT22;69411;45.656;11.740;2023-04-25T14:17:40;14.90;68.00
64817;DHT22;69411;45.656;11.740;2023-04-25T14:20:08;14.90;67.50
64817;DHT22;69411;45.656;11.740;2023-04-25T14:22:34;14.90;67.50
64817;DHT22;69411;45.656;11.740;2023-04-25T14:25:00;14.90;67.20
64817;DHT22;69411;45.656;11.740;2023-04-25T14:27:26;14.90;67.50
64817;DHT22;69411;45.656;11.740;2023-04-25T14:29:53;14.90;67.70
64817;DHT22;69411;45.656;11.740;2023-04-25T14:32:19;14.80;67.80
64817;DHT22;69411;45.656;11.740;2023-04-25T14:34:45;14.90;67.80
64817;DHT22;69411;45.656;11.740;2023-04-25T14:37:12;14.90;67.70
64817;DHT22;69411;45.656;11.740;2023-04-25T14:39:38;14.90;67.70
64817;DHT22;69411;45.656;11.740;2023-04-25T14:42:04;14.90;67.40
64817;DHT22;69411;45.656;11.740;2023-04-25T14:44:29;15.00;67.60
64817;DHT22;69411;45.656;11.740;2023-04-25T14:46:55;14.90;67.90
64817;DHT22;69411;45.656;11.740;2023-04-25T14:49:21;15.00;67.90
64817;DHT22;69411;45.656;11.740;2023-04-25T14:51:47;15.10;67.80
64817;DHT22;69411;45.656;11.740;2023-04-25T14:54:13;15.10;68.60
64817;DHT22;69411;45.656;11.740;2023-04-25T14:56:38;15.20;68.40
64817;DHT22;69411;45.656;11.740;2023-04-25T14:59:04;15.20;68.70
64817;DHT22;69411;45.656;11.740;2023-04-25T15:01:30;15.30;68.00
64817;DHT22;69411;45.656;11.740;2023-04-25T15:03:57;15.40;67.70
64817;DHT22;69411;45.656;11.740;2023-04-25T15:06:22;15.30;67.70
64817;DHT22;69411;45.656;11.740;2023-04-25T15:08:52;15.30;66.30
64817;DHT22;69411;45.656;11.740;2023-04-25T15:11:18;15.30;66.90
64817;DHT22;69411;45.656;11.740;2023-04-25T15:13:45;15.30;68.00
64817;DHT22;69411;45.656;11.740;2023-04-25T15:16:11;15.20;66.70
64817;DHT22;69411;45.656;11.740;2023-04-25T15:18:37;15.20;66.90
64817;DHT22;69411;45.656;11.740;2023-04-25T15:21:03;15.20;66.10
64817;DHT22;69411;45.656;11.740;2023-04-25T15:23:29;15.20;66.30
64817;DHT22;69411;45.656;11.740;2023-04-25T15:25:55;15.10;65.40